sensor_id;sensor_type;location;lat;lon;timestamp;P1;durP1;ratioP1;P2;durP2;ratioP2
73283;SDS011;61519;60.050;18.582;2023-09-19T00:02:02;6.75;;;1.70;;
73283;SDS011;61519;60.050;18.582;2023-09-19T00:04:32;6.53;;;1.63;;
73283;SDS011;61519;60.050;18.582;2023-09-19T00:06:57;6.03;;;2.00;;
73283;SDS011;61519;60.050;18.582;2023-09-19T00:09:23;5.95;;;2.15;;
73283;SDS011;61519;60.050;18.582;2023-09-19T00:11:52;5.10;;;2.20;;
73283;SDS011;61519;60.050;18.582;2023-09-19T00:14:17;5.27;;;2.17;;
73283;SDS011;61519;60.050;18.582;2023-09-19T00:16:43;7.53;;;2.30;;
73283;SDS011;61519;60.050;18.582;2023-09-19T00:19:08;7.20;;;2.40;;
73283;SDS011;61519;60.050;18.582;2023-09-19T00:21:34;7.10;;;2.30;;
73283;SDS011;61519;60.050;18.582;2023-09-19T00:24:02;5.07;;;1.95;;
73283;SDS011;61519;60.050;18.582;2023-09-19T00:26:28;5.33;;;2.23;;
73283;SDS011;61519;60.050;18.582;2023-09-19T00:28:55;5.05;;;2.28;;
73283;SDS011;61519;60.050;18.582;2023-09-19T00:31:22;5.68;;;2.58;;
73283;SDS011;61519;60.050;18.582;2023-09-19T00:33:48;7.80;;;2.53;;
73283;SDS011;61519;60.050;18.582;2023-09-19T00:36:13;9.03;;;2.40;;
73283;SDS011;61519;60.050;18.582;2023-09-19T00:38:39;6.13;;;2.30;;
73283;SDS011;61519;60.050;18.582;2023-09-19T00:41:04;6.50;;;2.57;;
73283;SDS011;61519;60.050;18.582;2023-09-19T00:43:29;6.37;;;2.17;;
73283;SDS011;61519;60.050;18.582;2023-09-19T00:45:59;7.20;;;2.10;;
73283;SDS011;61519;60.050;18.582;2023-09-19T00:48:26;7.00;;;2.78;;
73283;SDS011;61519;60.050;18.582;2023-09-19T00:50:54;7.57;;;3.07;;
73283;SDS011;61519;60.050;18.582;2023-09-19T00:53:23;5.03;;;2.13;;
73283;SDS011;61519;60.050;18.582;2023-09-19T00:55:50;7.85;;;2.60;;
73283;SDS011;61519;60.050;18.582;2023-09-19T00:58:17;5.63;;;2.50;;
73283;SDS011;61519;60.050;18.582;2023-09-19T01:00:43;6.10;;;2.63;;
73283;SDS011;61519;60.050;18.582;2023-09-19T01:03:10;8.47;;;2.70;;
73283;SDS011;61519;60.050;18.582;2023-09-19T01:05:36;6.93;;;2.80;;
73283;SDS011;61519;60.050;18.582;2023-09-19T01:08:01;6.07;;;2.67;;
73283;SDS011;61519;60.050;18.582;2023-09-19T01:10:27;8.15;;;2.50;;
73283;SDS011;61519;60.050;18.582;2023-09-19T01:15:40;10.13;;;3.67;;
73283;SDS011;61519;60.050;18.582;2023-09-19T01:18:35;7.78;;;2.97;;
73283;SDS011;61519;60.050;18.582;2023-09-19T01:21:44;6.47;;;3.22;;
73283;SDS011;61519;60.050;18.582;2023-09-19T01:27:12;7.93;;;3.28;;
73283;SDS011;61519;60.050;18.582;2023-09-19T01:29:50;6.70;;;3.10;;
73283;SDS011;61519;60.050;18.582;2023-09-19T01:32:17;6.53;;;3.20;;
73283;SDS011;61519;60.050;18.582;2023-09-19T01:34:47;6.93;;;2.90;;
73283;SDS011;61519;60.050;18.582;2023-09-19T01:37:18;7.45;;;2.70;;
73283;SDS011;61519;60.050;18.582;2023-09-19T01:39:49;10.07;;;3.40;;
73283;SDS011;61519;60.050;18.582;2023-09-19T01:45:08;11.57;;;3.28;;
73283;SDS011;61519;60.050;18.582;2023-09-19T01:47:39;8.82;;;3.42;;
73283;SDS011;61519;60.050;18.582;2023-09-19T01:50:13;9.02;;;3.80;;
73283;SDS011;61519;60.050;18.582;2023-09-19T01:52:49;10.13;;;3.58;;
73283;SDS011;61519;60.050;18.582;2023-09-19T01:55:30;9.40;;;3.40;;
73283;SDS011;61519;60.050;18.582;2023-09-19T01:58:01;5.75;;;3.08;;
73283;SDS011;61519;60.050;18.582;2023-09-19T02:00:32;7.57;;;3.40;;
73283;SDS011;61519;60.050;18.582;2023-09-19T02:03:01;9.43;;;3.50;;
73283;SDS011;61519;60.050;18.582;2023-09-19T02:05:28;7.20;;;3.50;;
73283;SDS011;61519;60.050;18.582;2023-09-19T02:07:53;10.27;;;3.70;;
73283;SDS011;61519;60.050;18.582;2023-09-19T02:10:19;12.53;;;3.90;;
73283;SDS011;61519;60.050;18.582;2023-09-19T02:12:45;6.55;;;3.35;;
73283;SDS011;61519;60.050;18.582;2023-09-19T02:15:11;10.40;;;3.58;;
73283;SDS011;61519;60.050;18.582;2023-09-19T02:17:36;9.40;;;4.33;;
73283;SDS011;61519;60.050;18.582;2023-09-19T02:20:03;8.80;;;3.67;;
73283;SDS011;61519;60.050;18.582;2023-09-19T02:22:35;11.10;;;3.90;;
73283;SDS011;61519;60.050;18.582;2023-09-19T02:25:01;10.57;;;3.92;;
73283;SDS011;61519;60.050;18.582;2023-09-19T02:27:30;8.07;;;4.00;;
73283;SDS011;61519;60.050;18.582;2023-09-19T02:29:55;10.73;;;4.00;;
73283;SDS011;61519;60.050;18.582;2023-09-19T02:32:21;8.53;;;4.10;;
73283;SDS011;61519;60.050;18.582;2023-09-19T02:34:46;10.20;;;4.20;;
73283;SDS011;61519;60.050;18.582;2023-09-19T02:37:11;9.97;;;4.17;;
73283;SDS011;61519;60.050;18.582;2023-09-19T02:39:38;16.52;;;4.97;;
73283;SDS011;61519;60.050;18.582;2023-09-19T02:42:04;14.63;;;5.20;;
73283;SDS011;61519;60.050;18.582;2023-09-19T02:44:29;10.40;;;4.25;;
73283;SDS011;61519;60.050;18.582;2023-09-19T02:46:56;9.10;;;4.93;;
73283;SDS011;61519;60.050;18.582;2023-09-19T02:49:22;15.07;;;5.17;;
73283;SDS011;61519;60.050;18.582;2023-09-19T02:51:47;11.25;;;5.50;;
73283;SDS011;61519;60.050;18.582;2023-09-19T02:54:13;11.13;;;5.27;;
73283;SDS011;61519;60.050;18.582;2023-09-19T02:56:38;15.63;;;5.27;;
73283;SDS011;61519;60.050;18.582;2023-09-19T02:59:04;10.00;;;4.70;;
73283;SDS011;61519;60.050;18.582;2023-09-19T03:01:30;17.30;;;5.63;;
73283;SDS011;61519;60.050;18.582;2023-09-19T03:03:56;11.77;;;4.73;;
73283;SDS011;61519;60.050;18.582;2023-09-19T03:06:21;10.83;;;5.50;;
73283;SDS011;61519;60.050;18.582;2023-09-19T03:08:47;14.13;;;5.35;;
73283;SDS011;61519;60.050;18.582;2023-09-19T03:11:14;9.32;;;5.43;;
73283;SDS011;61519;60.050;18.582;2023-09-19T03:13:41;11.47;;;5.80;;
73283;SDS011;61519;60.050;18.582;2023-09-19T03:16:07;12.15;;;5.55;;
73283;SDS011;61519;60.050;18.582;2023-09-19T03:18:36;10.43;;;6.10;;
73283;SDS011;61519;60.050;18.582;2023-09-19T03:21:01;11.95;;;5.63;;
73283;SDS011;61519;60.050;18.582;2023-09-19T03:23:27;14.00;;;5.77;;
73283;SDS011;61519;60.050;18.582;2023-09-19T03:25:53;14.87;;;6.67;;
73283;SDS011;61519;60.050;18.582;2023-09-19T03:28:19;15.25;;;6.45;;
73283;SDS011;61519;60.050;18.582;2023-09-19T03:30:46;12.20;;;6.20;;
73283;SDS011;61519;60.050;18.582;2023-09-19T03:33:21;10.82;;;6.20;;
73283;SDS011;61519;60.050;18.582;2023-09-19T03:35:51;11.67;;;5.80;;
73283;SDS011;61519;60.050;18.582;2023-09-19T03:38:18;13.45;;;6.32;;
73283;SDS011;61519;60.050;18.582;2023-09-19T03:40:44;11.77;;;6.72;;
73283;SDS011;61519;60.050;18.582;2023-09-19T03:43:10;12.00;;;6.63;;
73283;SDS011;61519;60.050;18.582;2023-09-19T03:45:35;12.53;;;7.17;;
73283;SDS011;61519;60.050;18.582;2023-09-19T03:48:00;16.07;;;7.30;;
73283;SDS011;61519;60.050;18.582;2023-09-19T03:50:26;14.23;;;6.97;;
73283;SDS011;61519;60.050;18.582;2023-09-19T03:52:55;14.07;;;6.90;;
73283;SDS011;61519;60.050;18.582;2023-09-19T03:55:22;14.00;;;7.32;;
73283;SDS011;61519;60.050;18.582;2023-09-19T03:57:50;13.50;;;6.43;;
73283;SDS011;61519;60.050;18.582;2023-09-19T04:00:15;14.57;;;6.38;;
73283;SDS011;61519;60.050;18.582;2023-09-19T04:02:43;12.60;;;7.37;;
73283;SDS011;61519;60.050;18.582;2023-09-19T04:05:11;12.75;;;7.10;;
73283;SDS011;61519;60.050;18.582;2023-09-19T04:07:36;15.53;;;7.40;;
73283;SDS011;61519;60.050;18.582;2023-09-19T04:10:01;14.30;;;7.00;;
73283;SDS011;61519;60.050;18.582;2023-09-19T04:12:28;13.18;;;7.30;;
73283;SDS011;61519;60.050;18.582;2023-09-19T04:14:53;14.50;;;7.17;;
73283;SDS011;61519;60.050;18.582;2023-09-19T04:17:18;14.20;;;7.40;;
73283;SDS011;61519;60.050;18.582;2023-09-19T04:19:43;12.88;;;7.15;;
73283;SDS011;61519;60.050;18.582;2023-09-19T04:22:10;11.83;;;6.87;;
73283;SDS011;61519;60.050;18.582;2023-09-19T04:24:37;13.90;;;7.30;;
73283;SDS011;61519;60.050;18.582;2023-09-19T04:27:03;11.45;;;7.40;;
73283;SDS011;61519;60.050;18.582;2023-09-19T04:29:29;16.60;;;8.63;;
73283;SDS011;61519;60.050;18.582;2023-09-19T04:31:54;17.83;;;7.70;;
73283;SDS011;61519;60.050;18.582;2023-09-19T04:34:20;14.63;;;7.95;;
73283;SDS011;61519;60.050;18.582;2023-09-19T04:36:45;17.67;;;9.27;;
73283;SDS011;61519;60.050;18.582;2023-09-19T04:39:11;18.27;;;8.23;;
73283;SDS011;61519;60.050;18.582;2023-09-19T04:41:37;14.02;;;8.23;;
73283;SDS011;61519;60.050;18.582;2023-09-19T04:44:06;18.20;;;8.50;;
73283;SDS011;61519;60.050;18.582;2023-09-19T04:46:32;16.67;;;8.10;;
73283;SDS011;61519;60.050;18.582;2023-09-19T04:49:01;15.07;;;8.00;;
73283;SDS011;61519;60.050;18.582;2023-09-19T04:51:27;17.85;;;9.80;;
73283;SDS011;61519;60.050;18.582;2023-09-19T04:53:57;18.83;;;9.90;;
73283;SDS011;61519;60.050;18.582;2023-09-19T04:56:23;20.13;;;8.73;;
73283;SDS011;61519;60.050;18.582;2023-09-19T04:58:49;18.40;;;9.32;;
73283;SDS011;61519;60.050;18.582;2023-09-19T05:01:14;18.23;;;9.47;;
73283;SDS011;61519;60.050;18.582;2023-09-19T05:03:40;17.83;;;9.10;;
73283;SDS011;61519;60.050;18.582;2023-09-19T05:06:05;17.60;;;8.93;;
73283;SDS011;61519;60.050;18.582;2023-09-19T05:08:31;16.50;;;8.93;;
73283;SDS011;61519;60.050;18.582;2023-09-19T05:10:56;16.77;;;9.33;;
73283;SDS011;61519;60.050;18.582;2023-09-19T05:13:21;16.93;;;8.63;;
73283;SDS011;61519;60.050;18.582;2023-09-19T05:15:48;20.88;;;9.30;;
73283;SDS011;61519;60.050;18.582;2023-09-19T05:18:15;21.80;;;9.30;;
73283;SDS011;61519;60.050;18.582;2023-09-19T05:20:40;17.73;;;9.10;;
73283;SDS011;61519;60.050;18.582;2023-09-19T05:23:07;17.33;;;9.13;;
73283;SDS011;61519;60.050;18.582;2023-09-19T05:25:34;16.23;;;9.13;;
73283;SDS011;61519;60.050;18.582;2023-09-19T05:28:04;17.98;;;9.65;;
73283;SDS011;61519;60.050;18.582;2023-09-19T05:30:34;19.10;;;9.67;;
73283;SDS011;61519;60.050;18.582;2023-09-19T05:33:08;18.23;;;10.20;;
73283;SDS011;61519;60.050;18.582;2023-09-19T05:35:33;16.00;;;9.00;;
73283;SDS011;61519;60.050;18.582;2023-09-19T05:37:59;17.20;;;9.90;;
73283;SDS011;61519;60.050;18.582;2023-09-19T05:40:25;18.73;;;8.97;;
73283;SDS011;61519;60.050;18.582;2023-09-19T05:42:51;19.88;;;10.48;;
73283;SDS011;61519;60.050;18.582;2023-09-19T05:45:16;20.48;;;10.10;;
73283;SDS011;61519;60.050;18.582;2023-09-19T05:47:50;19.33;;;10.35;;
73283;SDS011;61519;60.050;18.582;2023-09-19T05:50:17;18.60;;;10.60;;
73283;SDS011;61519;60.050;18.582;2023-09-19T05:52:55;17.17;;;9.55;;
73283;SDS011;61519;60.050;18.582;2023-09-19T05:55:21;17.73;;;9.40;;
73283;SDS011;61519;60.050;18.582;2023-09-19T05:57:50;18.60;;;9.60;;
73283;SDS011;61519;60.050;18.582;2023-09-19T06:00:17;15.50;;;9.07;;
73283;SDS011;61519;60.050;18.582;2023-09-19T06:02:44;17.00;;;8.57;;
73283;SDS011;61519;60.050;18.582;2023-09-19T06:05:10;22.38;;;9.93;;
73283;SDS011;61519;60.050;18.582;2023-09-19T06:07:36;14.90;;;8.90;;
73283;SDS011;61519;60.050;18.582;2023-09-19T06:10:05;16.77;;;9.50;;
73283;SDS011;61519;60.050;18.582;2023-09-19T06:12:32;20.52;;;9.70;;
73283;SDS011;61519;60.050;18.582;2023-09-19T06:14:59;14.65;;;9.45;;
73283;SDS011;61519;60.050;18.582;2023-09-19T06:17:25;19.00;;;8.87;;
73283;SDS011;61519;60.050;18.582;2023-09-19T06:19:52;16.80;;;9.07;;
73283;SDS011;61519;60.050;18.582;2023-09-19T06:22:18;19.37;;;10.67;;
73283;SDS011;61519;60.050;18.582;2023-09-19T06:24:43;15.63;;;9.27;;
73283;SDS011;61519;60.050;18.582;2023-09-19T06:27:09;19.75;;;10.00;;
73283;SDS011;61519;60.050;18.582;2023-09-19T06:29:34;15.13;;;9.37;;
73283;SDS011;61519;60.050;18.582;2023-09-19T06:32:02;18.20;;;9.40;;
73283;SDS011;61519;60.050;18.582;2023-09-19T06:34:32;20.13;;;9.17;;
73283;SDS011;61519;60.050;18.582;2023-09-19T06:36:58;18.23;;;10.13;;
73283;SDS011;61519;60.050;18.582;2023-09-19T06:39:23;19.50;;;10.40;;
73283;SDS011;61519;60.050;18.582;2023-09-19T06:41:50;18.65;;;9.32;;
73283;SDS011;61519;60.050;18.582;2023-09-19T06:44:18;17.92;;;9.15;;
73283;SDS011;61519;60.050;18.582;2023-09-19T06:46:43;14.50;;;8.37;;
73283;SDS011;61519;60.050;18.582;2023-09-19T06:49:11;12.60;;;7.85;;
73283;SDS011;61519;60.050;18.582;2023-09-19T06:51:38;15.90;;;7.32;;
73283;SDS011;61519;60.050;18.582;2023-09-19T06:54:03;12.90;;;7.13;;
73283;SDS011;61519;60.050;18.582;2023-09-19T06:56:30;11.38;;;6.28;;
73283;SDS011;61519;60.050;18.582;2023-09-19T06:58:57;11.13;;;7.53;;
73283;SDS011;61519;60.050;18.582;2023-09-19T07:01:22;13.23;;;6.67;;
73283;SDS011;61519;60.050;18.582;2023-09-19T07:03:47;12.07;;;6.87;;
73283;SDS011;61519;60.050;18.582;2023-09-19T07:06:13;11.10;;;5.77;;
73283;SDS011;61519;60.050;18.582;2023-09-19T07:08:38;15.00;;;6.77;;
73283;SDS011;61519;60.050;18.582;2023-09-19T07:11:03;9.53;;;6.00;;
73283;SDS011;61519;60.050;18.582;2023-09-19T07:13:31;12.73;;;6.78;;
73283;SDS011;61519;60.050;18.582;2023-09-19T07:15:58;10.35;;;6.20;;
73283;SDS011;61519;60.050;18.582;2023-09-19T07:18:24;10.55;;;6.50;;
73283;SDS011;61519;60.050;18.582;2023-09-19T07:20:49;11.23;;;6.17;;
73283;SDS011;61519;60.050;18.582;2023-09-19T07:23:18;12.53;;;6.33;;
73283;SDS011;61519;60.050;18.582;2023-09-19T07:25:47;13.60;;;6.68;;
73283;SDS011;61519;60.050;18.582;2023-09-19T07:28:13;12.10;;;6.87;;
73283;SDS011;61519;60.050;18.582;2023-09-19T07:30:39;11.68;;;7.03;;
73283;SDS011;61519;60.050;18.582;2023-09-19T07:33:06;16.60;;;7.22;;
73283;SDS011;61519;60.050;18.582;2023-09-19T07:35:32;12.50;;;7.03;;
73283;SDS011;61519;60.050;18.582;2023-09-19T07:37:58;12.52;;;7.45;;
73283;SDS011;61519;60.050;18.582;2023-09-19T07:40:26;13.13;;;6.88;;
73283;SDS011;61519;60.050;18.582;2023-09-19T07:42:54;11.82;;;7.18;;
73283;SDS011;61519;60.050;18.582;2023-09-19T07:45:26;13.32;;;7.20;;
73283;SDS011;61519;60.050;18.582;2023-09-19T07:47:56;13.43;;;7.73;;
73283;SDS011;61519;60.050;18.582;2023-09-19T07:50:22;16.15;;;7.25;;
73283;SDS011;61519;60.050;18.582;2023-09-19T07:52:48;12.63;;;7.00;;
73283;SDS011;61519;60.050;18.582;2023-09-19T07:55:16;13.27;;;7.03;;
73283;SDS011;61519;60.050;18.582;2023-09-19T07:57:42;17.10;;;7.70;;
73283;SDS011;61519;60.050;18.582;2023-09-19T08:00:08;14.25;;;7.55;;
73283;SDS011;61519;60.050;18.582;2023-09-19T08:02:38;14.35;;;8.25;;
73283;SDS011;61519;60.050;18.582;2023-09-19T08:05:07;14.32;;;7.20;;
73283;SDS011;61519;60.050;18.582;2023-09-19T08:07:37;14.57;;;7.85;;
73283;SDS011;61519;60.050;18.582;2023-09-19T08:10:07;13.90;;;7.33;;
73283;SDS011;61519;60.050;18.582;2023-09-19T08:12:37;14.68;;;7.40;;
73283;SDS011;61519;60.050;18.582;2023-09-19T08:15:11;14.93;;;7.43;;
73283;SDS011;61519;60.050;18.582;2023-09-19T08:17:36;12.70;;;6.70;;
73283;SDS011;61519;60.050;18.582;2023-09-19T08:20:01;13.73;;;7.27;;
73283;SDS011;61519;60.050;18.582;2023-09-19T08:22:28;13.82;;;6.82;;
73283;SDS011;61519;60.050;18.582;2023-09-19T08:24:53;13.17;;;6.63;;
73283;SDS011;61519;60.050;18.582;2023-09-19T08:27:19;9.38;;;6.32;;
73283;SDS011;61519;60.050;18.582;2023-09-19T08:29:44;9.32;;;5.35;;
73283;SDS011;61519;60.050;18.582;2023-09-19T08:32:10;8.93;;;5.23;;
73283;SDS011;61519;60.050;18.582;2023-09-19T08:34:35;9.00;;;4.93;;
73283;SDS011;61519;60.050;18.582;2023-09-19T08:37:03;8.85;;;5.38;;
73283;SDS011;61519;60.050;18.582;2023-09-19T08:39:29;8.53;;;4.97;;
73283;SDS011;61519;60.050;18.582;2023-09-19T08:41:59;10.13;;;5.07;;
73283;SDS011;61519;60.050;18.582;2023-09-19T08:44:25;9.07;;;5.82;;
73283;SDS011;61519;60.050;18.582;2023-09-19T08:46:53;7.97;;;4.78;;
73283;SDS011;61519;60.050;18.582;2023-09-19T08:50:04;11.87;;;5.10;;
73283;SDS011;61519;60.050;18.582;2023-09-19T08:52:37;9.15;;;5.05;;
73283;SDS011;61519;60.050;18.582;2023-09-19T08:55:07;7.78;;;5.40;;
73283;SDS011;61519;60.050;18.582;2023-09-19T08:57:36;9.07;;;5.00;;
73283;SDS011;61519;60.050;18.582;2023-09-19T09:00:07;7.55;;;4.93;;
73283;SDS011;61519;60.050;18.582;2023-09-19T09:02:36;8.97;;;5.23;;
73283;SDS011;61519;60.050;18.582;2023-09-19T09:05:05;7.55;;;4.78;;
73283;SDS011;61519;60.050;18.582;2023-09-19T09:07:31;7.53;;;4.18;;
73283;SDS011;61519;60.050;18.582;2023-09-19T09:09:59;7.93;;;4.93;;
73283;SDS011;61519;60.050;18.582;2023-09-19T09:12:25;7.10;;;4.63;;
73283;SDS011;61519;60.050;18.582;2023-09-19T09:14:51;7.55;;;4.65;;
73283;SDS011;61519;60.050;18.582;2023-09-19T09:17:17;8.38;;;4.60;;
73283;SDS011;61519;60.050;18.582;2023-09-19T09:19:45;7.38;;;4.65;;
73283;SDS011;61519;60.050;18.582;2023-09-19T09:22:11;6.77;;;4.20;;
73283;SDS011;61519;60.050;18.582;2023-09-19T09:24:37;7.43;;;4.68;;
73283;SDS011;61519;60.050;18.582;2023-09-19T09:27:15;7.30;;;4.90;;
73283;SDS011;61519;60.050;18.582;2023-09-19T09:34:48;8.40;;;4.45;;
73283;SDS011;61519;60.050;18.582;2023-09-19T09:37:18;11.38;;;5.18;;
73283;SDS011;61519;60.050;18.582;2023-09-19T09:39:53;9.60;;;5.30;;
73283;SDS011;61519;60.050;18.582;2023-09-19T09:42:31;7.45;;;4.70;;
73283;SDS011;61519;60.050;18.582;2023-09-19T09:45:13;7.17;;;4.97;;
73283;SDS011;61519;60.050;18.582;2023-09-19T09:47:45;7.85;;;4.82;;
73283;SDS011;61519;60.050;18.582;2023-09-19T09:50:23;9.70;;;5.10;;
73283;SDS011;61519;60.050;18.582;2023-09-19T09:52:54;8.32;;;5.10;;
73283;SDS011;61519;60.050;18.582;2023-09-19T09:55:32;8.80;;;5.82;;
73283;SDS011;61519;60.050;18.582;2023-09-19T09:58:25;8.43;;;4.93;;
73283;SDS011;61519;60.050;18.582;2023-09-19T10:00:54;8.90;;;5.13;;
73283;SDS011;61519;60.050;18.582;2023-09-19T10:03:31;8.27;;;4.72;;
73283;SDS011;61519;60.050;18.582;2023-09-19T10:05:59;8.98;;;5.05;;
73283;SDS011;61519;60.050;18.582;2023-09-19T10:08:27;7.70;;;5.32;;
73283;SDS011;61519;60.050;18.582;2023-09-19T10:10:56;10.10;;;5.40;;
73283;SDS011;61519;60.050;18.582;2023-09-19T10:13:30;11.07;;;5.88;;
73283;SDS011;61519;60.050;18.582;2023-09-19T10:15:56;8.73;;;5.07;;
73283;SDS011;61519;60.050;18.582;2023-09-19T10:18:28;9.57;;;5.38;;
73283;SDS011;61519;60.050;18.582;2023-09-19T10:20:57;11.18;;;5.45;;
73283;SDS011;61519;60.050;18.582;2023-09-19T10:23:26;9.77;;;5.60;;
73283;SDS011;61519;60.050;18.582;2023-09-19T10:25:54;9.60;;;5.85;;
73283;SDS011;61519;60.050;18.582;2023-09-19T10:28:22;12.25;;;5.50;;
73283;SDS011;61519;60.050;18.582;2023-09-19T10:30:49;10.20;;;4.90;;
73283;SDS011;61519;60.050;18.582;2023-09-19T10:33:17;11.38;;;5.68;;
73283;SDS011;61519;60.050;18.582;2023-09-19T10:35:46;8.93;;;5.43;;
73283;SDS011;61519;60.050;18.582;2023-09-19T10:38:13;10.25;;;6.25;;
73283;SDS011;61519;60.050;18.582;2023-09-19T10:40:42;8.52;;;5.53;;
73283;SDS011;61519;60.050;18.582;2023-09-19T10:43:11;9.02;;;5.63;;
73283;SDS011;61519;60.050;18.582;2023-09-19T10:45:37;10.30;;;5.57;;
73283;SDS011;61519;60.050;18.582;2023-09-19T10:48:05;9.43;;;5.90;;
73283;SDS011;61519;60.050;18.582;2023-09-19T10:50:37;7.93;;;5.05;;
73283;SDS011;61519;60.050;18.582;2023-09-19T10:53:10;14.82;;;5.40;;
73283;SDS011;61519;60.050;18.582;2023-09-19T10:55:37;8.98;;;5.70;;
73283;SDS011;61519;60.050;18.582;2023-09-19T10:58:03;9.73;;;5.78;;
73283;SDS011;61519;60.050;18.582;2023-09-19T11:01:13;8.90;;;5.43;;
73283;SDS011;61519;60.050;18.582;2023-09-19T11:03:40;11.07;;;5.45;;
73283;SDS011;61519;60.050;18.582;2023-09-19T11:06:27;9.32;;;5.38;;
73283;SDS011;61519;60.050;18.582;2023-09-19T11:09:02;9.57;;;5.60;;
73283;SDS011;61519;60.050;18.582;2023-09-19T11:14:41;11.60;;;4.97;;
73283;SDS011;61519;60.050;18.582;2023-09-19T11:30:30;10.63;;;4.20;;
73283;SDS011;61519;60.050;18.582;2023-09-19T11:36:08;9.05;;;4.20;;
73283;SDS011;61519;60.050;18.582;2023-09-19T11:43:48;9.15;;;4.80;;
73283;SDS011;61519;60.050;18.582;2023-09-19T11:46:15;8.43;;;4.38;;
73283;SDS011;61519;60.050;18.582;2023-09-19T11:48:47;8.52;;;4.20;;
73283;SDS011;61519;60.050;18.582;2023-09-19T11:51:14;7.65;;;3.92;;
73283;SDS011;61519;60.050;18.582;2023-09-19T11:53:48;9.57;;;3.80;;
73283;SDS011;61519;60.050;18.582;2023-09-19T11:56:18;6.75;;;3.72;;
73283;SDS011;61519;60.050;18.582;2023-09-19T11:58:45;8.25;;;4.03;;
73283;SDS011;61519;60.050;18.582;2023-09-19T12:01:15;6.85;;;3.90;;
73283;SDS011;61519;60.050;18.582;2023-09-19T12:03:57;5.85;;;3.00;;
73283;SDS011;61519;60.050;18.582;2023-09-19T12:06:27;8.30;;;3.20;;
73283;SDS011;61519;60.050;18.582;2023-09-19T12:08:57;4.90;;;2.53;;
73283;SDS011;61519;60.050;18.582;2023-09-19T12:11:26;5.18;;;2.97;;
73283;SDS011;61519;60.050;18.582;2023-09-19T12:13:53;6.03;;;2.40;;
73283;SDS011;61519;60.050;18.582;2023-09-19T12:16:23;8.43;;;2.70;;
73283;SDS011;61519;60.050;18.582;2023-09-19T12:18:49;7.00;;;2.43;;
73283;SDS011;61519;60.050;18.582;2023-09-19T12:21:31;6.35;;;1.90;;
73283;SDS011;61519;60.050;18.582;2023-09-19T12:24:04;4.97;;;2.17;;
73283;SDS011;61519;60.050;18.582;2023-09-19T12:26:38;4.10;;;1.90;;
73283;SDS011;61519;60.050;18.582;2023-09-19T12:29:15;6.47;;;2.20;;
73283;SDS011;61519;60.050;18.582;2023-09-19T12:31:49;5.97;;;1.85;;
73283;SDS011;61519;60.050;18.582;2023-09-19T12:34:20;4.90;;;2.45;;
73283;SDS011;61519;60.050;18.582;2023-09-19T12:36:48;3.83;;;2.00;;
73283;SDS011;61519;60.050;18.582;2023-09-19T12:39:23;4.87;;;1.73;;
73283;SDS011;61519;60.050;18.582;2023-09-19T12:41:50;5.72;;;1.55;;
73283;SDS011;61519;60.050;18.582;2023-09-19T12:44:16;4.25;;;1.50;;
73283;SDS011;61519;60.050;18.582;2023-09-19T12:46:43;4.25;;;1.92;;
73283;SDS011;61519;60.050;18.582;2023-09-19T12:49:16;4.35;;;2.05;;
73283;SDS011;61519;60.050;18.582;2023-09-19T12:51:48;4.20;;;1.53;;
73283;SDS011;61519;60.050;18.582;2023-09-19T12:54:14;6.00;;;1.50;;
73283;SDS011;61519;60.050;18.582;2023-09-19T12:56:45;4.43;;;1.70;;
73283;SDS011;61519;60.050;18.582;2023-09-19T12:59:12;3.78;;;1.40;;
73283;SDS011;61519;60.050;18.582;2023-09-19T13:01:42;3.50;;;1.50;;
73283;SDS011;61519;60.050;18.582;2023-09-19T13:04:19;3.93;;;1.70;;
73283;SDS011;61519;60.050;18.582;2023-09-19T13:06:51;3.50;;;1.50;;
73283;SDS011;61519;60.050;18.582;2023-09-19T13:09:21;5.63;;;1.38;;
73283;SDS011;61519;60.050;18.582;2023-09-19T13:11:49;2.95;;;1.35;;
73283;SDS011;61519;60.050;18.582;2023-09-19T13:14:17;3.25;;;1.45;;
73283;SDS011;61519;60.050;18.582;2023-09-19T13:17:00;3.47;;;1.37;;
73283;SDS011;61519;60.050;18.582;2023-09-19T13:19:38;3.47;;;1.17;;
73283;SDS011;61519;60.050;18.582;2023-09-19T13:25:04;4.95;;;1.33;;
73283;SDS011;61519;60.050;18.582;2023-09-19T13:27:31;3.33;;;1.40;;
73283;SDS011;61519;60.050;18.582;2023-09-19T13:29:58;3.87;;;1.27;;
73283;SDS011;61519;60.050;18.582;2023-09-19T13:32:23;3.50;;;1.00;;
73283;SDS011;61519;60.050;18.582;2023-09-19T13:34:49;7.97;;;1.30;;
73283;SDS011;61519;60.050;18.582;2023-09-19T13:37:16;4.72;;;1.55;;
73283;SDS011;61519;60.050;18.582;2023-09-19T13:39:43;4.43;;;1.20;;
73283;SDS011;61519;60.050;18.582;2023-09-19T13:42:12;4.85;;;1.00;;
73283;SDS011;61519;60.050;18.582;2023-09-19T13:44:38;2.97;;;1.20;;
73283;SDS011;61519;60.050;18.582;2023-09-19T13:47:03;3.28;;;1.17;;
73283;SDS011;61519;60.050;18.582;2023-09-19T13:49:34;3.27;;;1.00;;
73283;SDS011;61519;60.050;18.582;2023-09-19T13:52:00;2.60;;;0.90;;
73283;SDS011;61519;60.050;18.582;2023-09-19T13:54:28;4.53;;;0.82;;
73283;SDS011;61519;60.050;18.582;2023-09-19T13:56:53;4.07;;;1.20;;
73283;SDS011;61519;60.050;18.582;2023-09-19T13:59:19;3.70;;;0.90;;
73283;SDS011;61519;60.050;18.582;2023-09-19T14:01:48;3.50;;;0.95;;
73283;SDS011;61519;60.050;18.582;2023-09-19T14:04:14;6.65;;;0.93;;
73283;SDS011;61519;60.050;18.582;2023-09-19T14:06:41;4.77;;;0.80;;
73283;SDS011;61519;60.050;18.582;2023-09-19T14:09:07;4.82;;;1.40;;
73283;SDS011;61519;60.050;18.582;2023-09-19T14:11:33;4.32;;;1.30;;
73283;SDS011;61519;60.050;18.582;2023-09-19T14:13:58;7.80;;;1.07;;
73283;SDS011;61519;60.050;18.582;2023-09-19T14:16:25;3.75;;;1.13;;
73283;SDS011;61519;60.050;18.582;2023-09-19T14:18:55;3.63;;;0.90;;
73283;SDS011;61519;60.050;18.582;2023-09-19T14:21:20;6.17;;;1.23;;
73283;SDS011;61519;60.050;18.582;2023-09-19T14:23:45;3.97;;;1.37;;
73283;SDS011;61519;60.050;18.582;2023-09-19T14:26:11;3.33;;;1.02;;
73283;SDS011;61519;60.050;18.582;2023-09-19T14:28:36;4.78;;;1.50;;
73283;SDS011;61519;60.050;18.582;2023-09-19T14:31:04;3.53;;;0.97;;
73283;SDS011;61519;60.050;18.582;2023-09-19T14:33:33;6.70;;;1.33;;
73283;SDS011;61519;60.050;18.582;2023-09-19T14:36:01;3.63;;;1.23;;
73283;SDS011;61519;60.050;18.582;2023-09-19T14:38:30;4.07;;;1.10;;
73283;SDS011;61519;60.050;18.582;2023-09-19T14:40:58;3.25;;;1.00;;
73283;SDS011;61519;60.050;18.582;2023-09-19T14:43:27;4.35;;;0.93;;
73283;SDS011;61519;60.050;18.582;2023-09-19T14:45:55;8.45;;;1.08;;
73283;SDS011;61519;60.050;18.582;2023-09-19T14:48:22;3.97;;;0.93;;
73283;SDS011;61519;60.050;18.582;2023-09-19T14:50:50;8.00;;;1.20;;
73283;SDS011;61519;60.050;18.582;2023-09-19T14:53:16;5.38;;;1.00;;
73283;SDS011;61519;60.050;18.582;2023-09-19T14:55:41;3.63;;;1.10;;
73283;SDS011;61519;60.050;18.582;2023-09-19T14:58:09;3.72;;;1.00;;
73283;SDS011;61519;60.050;18.582;2023-09-19T15:00:36;6.47;;;1.20;;
73283;SDS011;61519;60.050;18.582;2023-09-19T15:03:01;3.83;;;0.87;;
73283;SDS011;61519;60.050;18.582;2023-09-19T15:05:27;3.40;;;0.90;;
73283;SDS011;61519;60.050;18.582;2023-09-19T15:07:55;4.55;;;0.93;;
73283;SDS011;61519;60.050;18.582;2023-09-19T15:10:21;3.70;;;1.02;;
73283;SDS011;61519;60.050;18.582;2023-09-19T15:12:47;3.40;;;0.80;;
73283;SDS011;61519;60.050;18.582;2023-09-19T15:15:13;3.80;;;0.75;;
73283;SDS011;61519;60.050;18.582;2023-09-19T15:17:39;4.00;;;0.88;;